createdAt,value
2023-03-20T00:02:27.292Z,101515.53
2023-03-20T00:04:55.765Z,101526.75
2023-03-20T00:07:26.050Z,101524.09
2023-03-20T00:09:55.058Z,101524.19
2023-03-20T00:12:26.408Z,101349.16
2023-03-20T00:14:55.214Z,101523.84
2023-03-20T00:17:23.533Z,101525.78
2023-03-20T00:19:52.043Z,101529.31
2023-03-20T00:22:20.364Z,101526.75
2023-03-20T00:24:50.300Z,101532.19
2023-03-20T00:27:19.468Z,101388.16
2023-03-20T00:29:48.360Z,101535.88
2023-03-20T00:32:17.004Z,101532.72
2023-03-20T00:34:45.440Z,101543.38
2023-03-20T00:37:14.755Z,101552.53
2023-03-20T00:39:43.280Z,101559.78
2023-03-20T00:42:22.405Z,101560.63
2023-03-20T00:44:54.295Z,101559.78
2023-03-20T00:47:27.325Z,101543.94
2023-03-20T00:49:58.234Z,101549.59
2023-03-20T00:52:27.389Z,101551.50
2023-03-20T00:54:55.838Z,101552.47
2023-03-20T00:57:27.982Z,101492.56
2023-03-20T01:00:00.164Z,101556.41
2023-03-20T01:02:31.455Z,101484.50
2023-03-20T01:05:02.182Z,101545.16
2023-03-20T01:07:30.733Z,101543.88
2023-03-20T01:09:59.239Z,101533.53
2023-03-20T01:12:29.134Z,101543.34
2023-03-20T01:14:59.998Z,101532.47
2023-03-20T01:17:30.513Z,101531.31
2023-03-20T01:19:59.966Z,101536.41
2023-03-20T01:22:28.326Z,101527.78
2023-03-20T01:24:56.927Z,101521.50
2023-03-20T01:27:25.753Z,101520.56
2023-03-20T01:29:55.767Z,101519.81
2023-03-20T01:32:24.275Z,101508.94
2023-03-20T01:34:54.953Z,101506.19
2023-03-20T01:37:26.848Z,101510.88
2023-03-20T01:39:58.880Z,101499.41
2023-03-20T01:42:28.899Z,101503.53
2023-03-20T01:44:59.007Z,101505.22
2023-03-20T01:47:29.870Z,101505.78
2023-03-20T01:50:32.842Z,101508.81
2023-03-20T01:53:24.673Z,101515.19
2023-03-20T01:55:59.758Z,101498.47
2023-03-20T01:58:39.441Z,101490.16
2023-03-20T02:01:12.544Z,101490.38
2023-03-20T02:03:47.237Z,101456.84
2023-03-20T02:06:48.057Z,101505.47
2023-03-20T02:09:20.448Z,101509.81
2023-03-20T02:11:51.132Z,101503.72
2023-03-20T02:14:22.827Z,101510.25
2023-03-20T02:16:58.117Z,101501.44
2023-03-20T02:19:46.798Z,101510.59
2023-03-20T02:22:53.759Z,101520.28
2023-03-20T02:26:02.119Z,101522.38
2023-03-20T02:29:21.102Z,101514.78
2023-03-20T02:32:31.553Z,101520.94
2023-03-20T02:35:41.370Z,101517.00
2023-03-20T02:38:32.181Z,101510.63
2023-03-20T02:41:08.311Z,101512.53
2023-03-20T02:43:44.777Z,101506.81
2023-03-20T02:46:20.930Z,101494.16
2023-03-20T02:48:57.402Z,101497.25
2023-03-20T02:51:33.488Z,101490.84
2023-03-20T02:54:09.753Z,101499.69
2023-03-20T02:56:48.422Z,101495.53
2023-03-20T02:59:25.049Z,101503.69
2023-03-20T03:02:07.628Z,101482.84
2023-03-20T03:04:39.794Z,101491.75
2023-03-20T03:07:12.222Z,101494.72
2023-03-20T03:09:47.607Z,101493.34
2023-03-20T03:12:19.286Z,101488.41
2023-03-20T03:14:50.532Z,101465.69
2023-03-20T03:17:24.874Z,101489.47
2023-03-20T03:19:57.859Z,101482.94
2023-03-20T03:22:27.410Z,101489.28
2023-03-20T03:24:56.399Z,101446.03
2023-03-20T03:27:29.125Z,101489.28
2023-03-20T03:30:00.243Z,101492.34
2023-03-20T03:32:33.548Z,101491.81
2023-03-20T03:35:03.757Z,101500.53
2023-03-20T03:37:42.728Z,101496.56
2023-03-20T03:40:21.140Z,101511.34
2023-03-20T03:42:57.389Z,101504.63
2023-03-20T03:45:33.213Z,101504.09
2023-03-20T03:48:06.587Z,101502.84
2023-03-20T03:50:39.746Z,101502.56
2023-03-20T03:53:12.549Z,101506.34
2023-03-20T03:55:45.100Z,101509.22
2023-03-20T03:58:19.838Z,101514.53
2023-03-20T04:00:52.091Z,101503.16
2023-03-20T04:03:25.583Z,101500.00
2023-03-20T04:05:57.563Z,101497.81
2023-03-20T04:08:27.954Z,101456.41
2023-03-20T04:10:56.448Z,101496.50
2023-03-20T04:13:24.738Z,101502.94
2023-03-20T04:15:53.433Z,101501.44
2023-03-20T04:18:23.466Z,101454.34
2023-03-20T04:20:52.593Z,101487.91
2023-03-20T04:23:21.005Z,101474.44
2023-03-20T04:25:49.390Z,101485.34
2023-03-20T04:28:19.714Z,101486.28
2023-03-20T04:31:08.902Z,101490.81
2023-03-20T04:33:57.392Z,101491.66
2023-03-20T04:36:44.514Z,101489.47
2023-03-20T04:39:15.725Z,101487.78
2023-03-20T04:41:44.177Z,101495.16
2023-03-20T04:44:12.581Z,101499.69
2023-03-20T04:46:42.997Z,101499.66
2023-03-20T04:49:18.227Z,101495.31
2023-03-20T04:51:46.851Z,101464.00
2023-03-20T04:54:17.080Z,101501.03
2023-03-20T04:56:45.816Z,101500.69
2023-03-20T04:59:18.134Z,101470.00
2023-03-20T05:01:47.136Z,101500.91
2023-03-20T05:04:15.690Z,101502.03
2023-03-20T05:06:49.284Z,101504.84
2023-03-20T05:09:20.467Z,101504.59
2023-03-20T05:11:50.463Z,101506.56
2023-03-20T05:14:42.878Z,101513.09
2023-03-20T05:17:37.332Z,101508.75
2023-03-20T05:20:18.577Z,101510.53
2023-03-20T05:23:06.300Z,101514.13
2023-03-20T05:25:54.446Z,101513.84
2023-03-20T05:28:34.820Z,101512.81
2023-03-20T05:31:29.227Z,101511.31
2023-03-20T05:34:20.678Z,101510.53
2023-03-20T05:37:09.367Z,101508.03
2023-03-20T05:40:02.113Z,101504.78
2023-03-20T05:42:33.567Z,101506.91
2023-03-20T05:45:20.698Z,101495.13
2023-03-20T05:48:09.490Z,101496.34
2023-03-20T05:50:37.911Z,101501.22
2023-03-20T05:53:17.224Z,101492.44
2023-03-20T05:56:10.600Z,101496.03
2023-03-20T05:58:42.504Z,101503.03
2023-03-20T06:01:31.078Z,101497.91
2023-03-20T06:03:59.497Z,101504.31
2023-03-20T06:06:54.167Z,101502.00
2023-03-20T06:09:24.084Z,101502.00
2023-03-20T06:11:53.905Z,101505.25
2023-03-20T06:14:22.447Z,101507.03
2023-03-20T06:16:58.387Z,101502.50
2023-03-20T06:19:27.953Z,101515.31
2023-03-20T06:21:57.376Z,101517.19
2023-03-20T06:24:26.337Z,101523.69
2023-03-20T06:26:56.884Z,101525.69
2023-03-20T06:29:26.707Z,101532.28
2023-03-20T06:31:58.828Z,101539.19
2023-03-20T06:34:30.984Z,101539.66
2023-03-20T06:36:59.480Z,101549.66
2023-03-20T06:39:28.746Z,101543.78
2023-03-20T06:41:59.345Z,101535.00
2023-03-20T06:44:28.189Z,101521.09
2023-03-20T06:47:34.844Z,101542.00
2023-03-20T06:50:03.361Z,101540.84
2023-03-20T06:52:34.296Z,101544.16
2023-03-20T06:55:33.858Z,101546.69
2023-03-20T06:58:03.909Z,101542.00
2023-03-20T07:00:33.335Z,101549.72
2023-03-20T07:03:05.985Z,101546.66
2023-03-20T07:05:35.337Z,101551.59
2023-03-20T07:08:08.641Z,101551.97
2023-03-20T07:10:37.853Z,101549.13
2023-03-20T07:13:08.665Z,101543.44
2023-03-20T07:15:39.263Z,101536.84
2023-03-20T07:18:09.822Z,101536.31
2023-03-20T07:20:38.620Z,101532.34
2023-03-20T07:23:07.221Z,101526.31
2023-03-20T07:25:42.955Z,101528.88
2023-03-20T07:28:18.439Z,101514.81
2023-03-20T07:30:53.188Z,101514.56
2023-03-20T07:33:21.798Z,101516.94
2023-03-20T07:35:54.581Z,101525.53
2023-03-20T07:38:24.205Z,101522.50
2023-03-20T07:41:06.029Z,101526.31
2023-03-20T07:43:37.876Z,101523.97
2023-03-20T07:46:25.748Z,101524.53
2023-03-20T07:48:56.761Z,101522.09
2023-03-20T07:51:25.751Z,101523.47
2023-03-20T07:53:54.078Z,101517.84
2023-03-20T07:56:22.479Z,101521.59
2023-03-20T07:58:52.319Z,101523.72
2023-03-20T08:01:20.935Z,101524.13
2023-03-20T08:03:49.511Z,101528.44
2023-03-20T08:06:18.157Z,101517.06
2023-03-20T08:08:46.851Z,101528.34
2023-03-20T08:11:15.695Z,101504.09
2023-03-20T08:13:44.127Z,101536.69
2023-03-20T08:16:17.016Z,101537.75
2023-03-20T08:18:45.525Z,101535.28
2023-03-20T08:21:16.808Z,101535.47
2023-03-20T08:23:45.255Z,101534.09
2023-03-20T08:26:13.875Z,101533.66
2023-03-20T08:28:48.071Z,101537.50
2023-03-20T08:31:19.248Z,101541.72
2023-03-20T08:33:48.675Z,101543.66
2023-03-20T08:36:19.895Z,101530.09
2023-03-20T08:38:49.545Z,101538.25
2023-03-20T08:41:18.602Z,101527.63
2023-03-20T08:43:47.855Z,101542.13
2023-03-20T08:46:16.299Z,101543.47
2023-03-20T08:48:46.435Z,101542.81
2023-03-20T08:51:15.186Z,101543.09
2023-03-20T08:53:43.830Z,101546.78
2023-03-20T08:56:12.983Z,101547.75
2023-03-20T08:58:41.452Z,101550.31
2023-03-20T09:01:10.999Z,101546.47
2023-03-20T09:03:39.513Z,101547.41
2023-03-20T09:06:10.773Z,101548.88
2023-03-20T09:08:39.664Z,101518.50
2023-03-20T09:11:08.358Z,101546.72
2023-03-20T09:13:37.296Z,101532.56
2023-03-20T09:16:06.712Z,101543.34
2023-03-20T09:18:35.274Z,101534.94
2023-03-20T09:21:04.001Z,101536.78
2023-03-20T09:23:34.900Z,101483.84
2023-03-20T09:26:03.706Z,101535.31
2023-03-20T09:28:33.545Z,101532.34
2023-03-20T09:31:02.408Z,101537.72
2023-03-20T09:33:30.887Z,101541.56
2023-03-20T09:35:59.395Z,101543.94
2023-03-20T09:38:27.858Z,101550.31
2023-03-20T09:41:00.122Z,101547.78
2023-03-20T09:43:46.331Z,101545.53
2023-03-20T09:46:25.572Z,101546.03
2023-03-20T09:49:03.610Z,101532.44
2023-03-20T09:51:39.507Z,101547.38
2023-03-20T09:54:13.453Z,101549.47
2023-03-20T09:56:43.407Z,101541.94
2023-03-20T09:59:17.785Z,101541.50
2023-03-20T10:01:52.145Z,101550.97
2023-03-20T10:04:20.969Z,101543.72
2023-03-20T10:06:49.422Z,101553.72
2023-03-20T10:09:22.222Z,101548.41
2023-03-20T10:12:22.851Z,101550.34
2023-03-20T10:14:59.813Z,101544.25
2023-03-20T10:17:47.487Z,101540.41
2023-03-20T10:20:25.396Z,101535.72
2023-03-20T10:22:58.028Z,101532.56
2023-03-20T10:25:32.635Z,101496.25
2023-03-20T10:28:05.637Z,101531.84
2023-03-20T10:30:51.159Z,101532.28
2023-03-20T10:33:30.643Z,101533.63
2023-03-20T10:36:11.936Z,101537.75
2023-03-20T10:38:47.015Z,101530.75
2023-03-20T10:41:20.180Z,101498.34
2023-03-20T10:43:52.823Z,101534.59
2023-03-20T10:46:26.686Z,101525.38
2023-03-20T10:49:01.273Z,101517.53
2023-03-20T10:51:40.384Z,101515.88
2023-03-20T10:54:20.036Z,101511.16
2023-03-20T10:56:50.886Z,101522.38
2023-03-20T10:59:25.031Z,101481.38
2023-03-20T11:01:53.763Z,101507.41
2023-03-20T11:04:22.612Z,101512.31
2023-03-20T11:06:58.648Z,101507.59
2023-03-20T11:09:29.923Z,101455.03
2023-03-20T11:12:00.801Z,101504.22
2023-03-20T11:14:35.647Z,101499.13
2023-03-20T11:17:05.741Z,101498.81
2023-03-20T11:19:36.257Z,101487.66
2023-03-20T11:22:10.151Z,101485.13
2023-03-20T11:24:43.217Z,101487.66
2023-03-20T11:27:16.214Z,101488.66
2023-03-20T11:29:49.810Z,101484.63
2023-03-20T11:32:28.055Z,101473.31
2023-03-20T11:34:57.899Z,101476.00
2023-03-20T11:37:29.479Z,101457.94
2023-03-20T11:40:00.464Z,101480.91
2023-03-20T11:42:30.569Z,101477.69
2023-03-20T11:45:02.873Z,101470.59
2023-03-20T11:47:35.124Z,101446.13
2023-03-20T11:50:06.602Z,101450.16
2023-03-20T11:52:36.569Z,101439.19
2023-03-20T11:55:08.610Z,101478.00
2023-03-20T11:57:39.558Z,101458.56
2023-03-20T12:00:21.536Z,101468.34
2023-03-20T12:02:50.837Z,101468.88
2023-03-20T12:05:31.691Z,101457.88
2023-03-20T12:08:04.401Z,101438.63
2023-03-20T12:10:39.585Z,101450.09
2023-03-20T12:13:14.456Z,101407.09
2023-03-20T12:15:49.111Z,101452.13
2023-03-20T12:18:23.582Z,101449.91
2023-03-20T12:21:04.247Z,101447.03
2023-03-20T12:23:36.610Z,101441.44
2023-03-20T12:26:10.129Z,101440.72
2023-03-20T12:28:44.788Z,101436.16
2023-03-20T12:31:24.064Z,101438.84
2023-03-20T12:33:56.543Z,101393.31
2023-03-20T12:36:32.461Z,101425.59
2023-03-20T12:39:01.325Z,101421.53
2023-03-20T12:41:35.834Z,101384.44
2023-03-20T12:44:25.816Z,101416.41
2023-03-20T12:47:08.484Z,101413.88
2023-03-20T12:49:45.507Z,101404.22
2023-03-20T12:52:22.386Z,101407.00
2023-03-20T12:55:13.343Z,101397.69
2023-03-20T12:57:51.718Z,101396.53
2023-03-20T13:00:29.128Z,101394.28
2023-03-20T13:03:11.774Z,101396.63
2023-03-20T13:05:48.726Z,101368.19
2023-03-20T13:08:48.815Z,101380.06
2023-03-20T13:11:26.066Z,101377.50
2023-03-20T13:13:57.955Z,101379.81
2023-03-20T13:16:36.179Z,101372.16
2023-03-20T13:19:13.859Z,101325.72
2023-03-20T13:21:48.945Z,101365.84
2023-03-20T13:24:28.626Z,101265.06
2023-03-20T13:27:07.206Z,101356.63
2023-03-20T13:29:46.082Z,101366.38
2023-03-20T13:32:28.767Z,101363.84
2023-03-20T13:35:23.654Z,101363.09
2023-03-20T13:37:56.060Z,101358.63
2023-03-20T13:40:28.459Z,101350.97
2023-03-20T13:43:01.029Z,101348.81
2023-03-20T13:45:36.227Z,101305.06
2023-03-20T13:48:20.899Z,101331.53
2023-03-20T13:50:58.025Z,101335.25
2023-03-20T13:53:36.370Z,101338.03
2023-03-20T13:56:16.196Z,101332.09
2023-03-20T13:59:04.996Z,101333.22
2023-03-20T14:01:43.535Z,101335.19
2023-03-20T14:04:17.508Z,101327.25
2023-03-20T14:06:51.516Z,101318.75
2023-03-20T14:09:29.681Z,101317.13
2023-03-20T14:12:02.857Z,101300.81
2023-03-20T14:14:32.633Z,101317.72
2023-03-20T14:17:10.457Z,101325.19
2023-03-20T14:19:40.124Z,101315.38
2023-03-20T14:22:17.697Z,101198.00
2023-03-20T14:24:53.393Z,101315.94
2023-03-20T14:27:36.819Z,101315.53
2023-03-20T14:30:40.902Z,101311.78
2023-03-20T14:33:27.854Z,101315.72
2023-03-20T14:36:21.237Z,101314.88
2023-03-20T14:39:06.795Z,101302.00
2023-03-20T14:41:49.928Z,101311.63
2023-03-20T14:44:27.953Z,101304.03
2023-03-20T14:47:03.609Z,101305.06
2023-03-20T14:49:50.308Z,101278.19
2023-03-20T14:52:44.114Z,101306.56
2023-03-20T14:55:31.777Z,101313.72
2023-03-20T14:58:04.592Z,101302.75
2023-03-20T15:00:37.955Z,101299.59
2023-03-20T15:03:10.023Z,101300.16
2023-03-20T15:05:40.548Z,101299.19
2023-03-20T15:08:11.553Z,101295.81
2023-03-20T15:10:48.843Z,101286.97
2023-03-20T15:13:18.856Z,101297.44
2023-03-20T15:15:55.541Z,101258.34
2023-03-20T15:18:26.366Z,101299.47
2023-03-20T15:20:57.672Z,101251.66
2023-03-20T15:23:27.351Z,101290.69
2023-03-20T15:25:57.120Z,101288.84
2023-03-20T15:28:27.567Z,101270.44
2023-03-20T15:30:59.409Z,101267.44
2023-03-20T15:33:30.743Z,101292.69
2023-03-20T15:36:00.223Z,101285.66
2023-03-20T15:38:34.010Z,101283.66
2023-03-20T15:41:07.557Z,101285.72
2023-03-20T15:43:38.299Z,101284.69
2023-03-20T15:46:18.053Z,101288.06
2023-03-20T15:48:50.541Z,101284.31
2023-03-20T15:51:21.425Z,101284.13
2023-03-20T15:53:50.540Z,101277.75
2023-03-20T15:56:25.296Z,101283.47
2023-03-20T15:58:55.495Z,101275.81
2023-03-20T16:01:25.872Z,101277.03
2023-03-20T16:03:58.433Z,101277.09
2023-03-20T16:06:28.133Z,101275.94
2023-03-20T16:09:02.476Z,101273.75
2023-03-20T16:11:42.173Z,101269.19
2023-03-20T16:14:15.894Z,101266.19
2023-03-20T16:16:45.479Z,101270.66
2023-03-20T16:19:15.266Z,101268.84
2023-03-20T16:21:49.093Z,101265.66
2023-03-20T16:24:22.233Z,101263.13
2023-03-20T16:26:54.497Z,101267.88
2023-03-20T16:29:24.507Z,101268.59
2023-03-20T16:31:58.174Z,101267.25
2023-03-20T16:34:31.900Z,101272.88
2023-03-20T16:37:03.331Z,101277.75
2023-03-20T16:39:32.487Z,101282.13
2023-03-20T16:42:13.180Z,101280.28
2023-03-20T16:44:42.806Z,101283.69
2023-03-20T16:47:23.696Z,101289.94
2023-03-20T16:50:08.951Z,101277.16
2023-03-20T16:52:39.709Z,101281.84
2023-03-20T16:55:16.440Z,101291.72
2023-03-20T16:57:51.135Z,101142.50
2023-03-20T17:00:25.794Z,101293.44
2023-03-20T17:03:02.241Z,101292.13
2023-03-20T17:05:55.770Z,101294.50
2023-03-20T17:08:29.945Z,101294.53
2023-03-20T17:11:01.692Z,101293.88
2023-03-20T17:13:31.599Z,101290.84
2023-03-20T17:16:01.366Z,101295.91
2023-03-20T17:18:30.374Z,101293.22
2023-03-20T17:20:59.137Z,101286.84
2023-03-20T17:23:27.958Z,101279.91
2023-03-20T17:25:56.356Z,101286.50
2023-03-20T17:28:30.083Z,101286.72
2023-03-20T17:31:00.903Z,101296.31
2023-03-20T17:33:30.007Z,101276.75
2023-03-20T17:35:59.980Z,101301.72
2023-03-20T17:38:28.635Z,101293.56
2023-03-20T17:40:57.997Z,101297.03
2023-03-20T17:43:27.427Z,101304.19
2023-03-20T17:45:55.855Z,101303.97
2023-03-20T17:48:27.100Z,101299.16
2023-03-20T17:50:55.581Z,101303.53
2023-03-20T17:53:26.277Z,101253.47
2023-03-20T17:55:54.766Z,101296.03
2023-03-20T17:58:24.977Z,101248.47
2023-03-20T18:00:55.373Z,101304.38
2023-03-20T18:03:25.250Z,101306.25
2023-03-20T18:05:54.032Z,101304.38
2023-03-20T18:08:24.063Z,101315.25
2023-03-20T18:10:54.458Z,101321.44
2023-03-20T18:13:25.411Z,101265.50
2023-03-20T18:15:56.931Z,101321.00
2023-03-20T18:18:27.915Z,101323.16
2023-03-20T18:20:57.848Z,101327.31
2023-03-20T18:23:26.671Z,101332.69
2023-03-20T18:25:55.503Z,101332.75
2023-03-20T18:28:24.832Z,101347.00
2023-03-20T18:30:54.824Z,101349.41
2023-03-20T18:33:27.866Z,101349.69
2023-03-20T18:35:58.148Z,101350.81
2023-03-20T18:38:28.331Z,101349.28
2023-03-20T18:40:57.262Z,101360.16
2023-03-20T18:43:26.023Z,101358.75
2023-03-20T18:45:55.041Z,101356.63
2023-03-20T18:48:25.240Z,101355.03
2023-03-20T18:51:01.247Z,101364.34
2023-03-20T18:53:31.952Z,101364.63
2023-03-20T18:56:00.960Z,101369.50
2023-03-20T18:58:31.957Z,101377.81
2023-03-20T19:01:03.860Z,101381.63
2023-03-20T19:03:39.454Z,101380.44
2023-03-20T19:06:14.478Z,101337.56
2023-03-20T19:08:46.380Z,101378.16
2023-03-20T19:11:18.418Z,101390.81
2023-03-20T19:13:51.405Z,101391.91
2023-03-20T19:16:25.959Z,101387.63
2023-03-20T19:18:56.476Z,101402.06
2023-03-20T19:21:26.568Z,101400.75
2023-03-20T19:23:58.251Z,101408.00
2023-03-20T19:26:28.387Z,101423.19
2023-03-20T19:28:58.983Z,101414.22
2023-03-20T19:31:28.018Z,101418.06
2023-03-20T19:33:57.093Z,101426.25
2023-03-20T19:36:29.434Z,101414.78
2023-03-20T19:39:01.019Z,101419.66
2023-03-20T19:41:32.275Z,101407.56
2023-03-20T19:44:01.714Z,101422.50
2023-03-20T19:46:40.800Z,101429.34
2023-03-20T19:49:19.067Z,101428.88
2023-03-20T19:51:48.163Z,101438.19
2023-03-20T19:54:18.513Z,101386.31
2023-03-20T19:56:47.006Z,101433.38
2023-03-20T19:59:16.869Z,101442.13
2023-03-20T20:01:46.786Z,101429.50
2023-03-20T20:04:16.354Z,101434.63
2023-03-20T20:06:47.403Z,101429.91
2023-03-20T20:09:18.274Z,101384.19
2023-03-20T20:11:46.757Z,101438.16
2023-03-20T20:14:15.469Z,101438.31
2023-03-20T20:16:45.990Z,101440.00
2023-03-20T20:19:14.710Z,101439.16
2023-03-20T20:24:33.381Z,101440.66
2023-03-20T20:27:18.189Z,101448.44
2023-03-20T20:29:51.604Z,101451.19
2023-03-20T20:32:23.304Z,101456.28
2023-03-20T20:35:39.906Z,101453.00
2023-03-20T20:38:27.175Z,101451.88
2023-03-20T20:40:32.457Z,101451.09
2023-03-20T20:43:02.413Z,101455.56
2023-03-20T20:45:32.250Z,101445.38
2023-03-20T20:48:01.491Z,101453.53
2023-03-20T20:50:32.646Z,101451.13
2023-03-20T20:53:01.925Z,101450.00
2023-03-20T20:55:32.299Z,101447.44
2023-03-20T20:58:01.442Z,101452.47
2023-03-20T21:00:48.435Z,101457.63
2023-03-20T21:03:17.319Z,101457.69
2023-03-20T21:05:45.701Z,101453.66
2023-03-20T21:08:14.668Z,101456.88
2023-03-20T21:10:46.006Z,101418.50
2023-03-20T21:13:14.656Z,101448.78
2023-03-20T21:15:43.539Z,101449.84
2023-03-20T21:18:11.992Z,101452.66
2023-03-20T21:20:40.399Z,101445.97
2023-03-20T21:23:08.799Z,101452.13
2023-03-20T21:25:40.976Z,101448.00
2023-03-20T21:28:11.949Z,101439.25
2023-03-20T21:30:54.458Z,101444.06
2023-03-20T21:33:30.679Z,101443.31
2023-03-20T21:35:59.159Z,101444.38
2023-03-20T21:41:16.817Z,101439.28
2023-03-20T21:43:47.842Z,101443.25
2023-03-20T21:58:22.720Z,101458.50
2023-03-20T22:03:29.061Z,101458.22
2023-03-20T22:18:05.895Z,101463.16
2023-03-20T22:34:54.366Z,101451.88
2023-03-20T22:43:26.502Z,101462.75
2023-03-20T22:45:42.943Z,101460.44
2023-03-20T22:48:15.961Z,101461.38
2023-03-20T22:50:45.957Z,101465.41
2023-03-20T22:53:14.433Z,101467.53
2023-03-20T22:55:44.228Z,101439.78
2023-03-20T22:58:12.875Z,101462.22
2023-03-20T23:00:41.638Z,101445.94
2023-03-20T23:03:25.546Z,101427.09
2023-03-20T23:06:07.574Z,101440.72
2023-03-20T23:08:47.974Z,101441.13
2023-03-20T23:11:21.573Z,101445.91
2023-03-20T23:13:50.025Z,101451.53
2023-03-20T23:16:19.207Z,101446.44
2023-03-20T23:18:47.648Z,101432.72
2023-03-20T23:21:17.479Z,101404.84
2023-03-20T23:23:46.177Z,101440.03
2023-03-20T23:26:16.355Z,101442.88
2023-03-20T23:28:47.674Z,101450.66
2023-03-20T23:31:18.728Z,101448.75
2023-03-20T23:33:50.544Z,101439.06
2023-03-20T23:36:34.914Z,101442.25
2023-03-20T23:39:04.784Z,101449.84
2023-03-20T23:42:01.753Z,101455.50
2023-03-20T23:44:21.811Z,101454.28
2023-03-20T23:46:50.499Z,101427.44
2023-03-20T23:49:19.035Z,101451.28
2023-03-20T23:51:48.874Z,101442.75
2023-03-20T23:54:17.497Z,101443.19
2023-03-20T23:56:45.940Z,101432.75
2023-03-20T23:59:21.570Z,101443.75
